sensor_id;sensor_type;location;lat;lon;timestamp;pressure;altitude;pressure_sealevel;temperature;humidity
18795;BME280;29610;49.022;12.114;2023-03-14T00:00:11;96111.59;;;11.82;100.00
18795;BME280;29610;49.022;12.114;2023-03-14T00:02:44;96106.50;;;11.81;100.00
18795;BME280;29610;49.022;12.114;2023-03-14T00:05:14;96104.53;;;11.78;100.00
18795;BME280;29610;49.022;12.114;2023-03-14T00:07:42;96105.13;;;11.64;100.00
18795;BME280;29610;49.022;12.114;2023-03-14T00:10:13;96095.56;;;11.51;100.00
18795;BME280;29610;49.022;12.114;2023-03-14T00:12:43;96097.31;;;11.40;100.00
18795;BME280;29610;49.022;12.114;2023-03-14T00:15:12;96113.41;;;11.26;100.00
18795;BME280;29610;49.022;12.114;2023-03-14T00:17:43;96097.31;;;11.40;100.00
18795;BME280;29610;49.022;12.114;2023-03-14T00:20:13;96082.00;;;11.55;100.00
18795;BME280;29610;49.022;12.114;2023-03-14T00:22:42;96077.44;;;11.36;100.00
18795;BME280;29610;49.022;12.114;2023-03-14T00:25:11;96071.94;;;11.33;100.00
18795;BME280;29610;49.022;12.114;2023-03-14T00:27:40;96053.53;;;11.23;100.00
18795;BME280;29610;49.022;12.114;2023-03-14T00:30:10;96055.59;;;11.29;100.00
18795;BME280;29610;49.022;12.114;2023-03-14T00:32:39;96071.22;;;11.36;100.00
18795;BME280;29610;49.022;12.114;2023-03-14T00:35:09;96137.53;;;11.28;100.00
18795;BME280;29610;49.022;12.114;2023-03-14T00:37:39;96130.63;;;11.34;100.00
18795;BME280;29610;49.022;12.114;2023-03-14T00:40:09;96129.66;;;11.45;100.00
18795;BME280;29610;49.022;12.114;2023-03-14T00:42:38;96135.81;;;11.42;100.00
18795;BME280;29610;49.022;12.114;2023-03-14T00:45:08;96160.53;;;11.34;100.00
18795;BME280;29610;49.022;12.114;2023-03-14T00:47:37;96167.19;;;11.36;100.00
18795;BME280;29610;49.022;12.114;2023-03-14T00:50:07;96161.75;;;11.36;100.00
18795;BME280;29610;49.022;12.114;2023-03-14T00:52:35;96164.56;;;11.21;100.00
18795;BME280;29610;49.022;12.114;2023-03-14T00:55:07;96158.19;;;11.32;100.00
18795;BME280;29610;49.022;12.114;2023-03-14T00:57:36;96154.66;;;11.32;100.00
18795;BME280;29610;49.022;12.114;2023-03-14T01:00:06;96163.63;;;11.32;100.00
18795;BME280;29610;49.022;12.114;2023-03-14T01:02:38;96167.38;;;11.24;100.00
18795;BME280;29610;49.022;12.114;2023-03-14T01:05:08;96156.97;;;11.30;100.00
18795;BME280;29610;49.022;12.114;2023-03-14T01:07:37;96182.53;;;11.25;100.00
18795;BME280;29610;49.022;12.114;2023-03-14T01:10:10;96164.56;;;11.21;100.00
18795;BME280;29610;49.022;12.114;2023-03-14T01:12:38;96161.84;;;11.21;100.00
18795;BME280;29610;49.022;12.114;2023-03-14T01:15:09;96144.28;;;11.15;100.00
18795;BME280;29610;49.022;12.114;2023-03-14T01:17:38;96161.94;;;10.83;100.00
18795;BME280;29610;49.022;12.114;2023-03-14T01:20:11;96170.13;;;11.05;100.00
18795;BME280;29610;49.022;12.114;2023-03-14T01:22:40;96147.84;;;11.19;100.00
18795;BME280;29610;49.022;12.114;2023-03-14T01:25:14;96141.13;;;11.13;100.00
18795;BME280;29610;49.022;12.114;2023-03-14T01:27:43;96133.47;;;11.18;100.00
18795;BME280;29610;49.022;12.114;2023-03-14T01:30:13;96123.72;;;11.17;100.00
18795;BME280;29610;49.022;12.114;2023-03-14T01:32:42;96123.97;;;11.09;100.00
18795;BME280;29610;49.022;12.114;2023-03-14T01:35:11;96136.66;;;11.01;100.00
18795;BME280;29610;49.022;12.114;2023-03-14T01:37:40;96128.38;;;10.94;100.00
18795;BME280;29610;49.022;12.114;2023-03-14T01:40:17;96122.06;;;10.90;100.00
18795;BME280;29610;49.022;12.114;2023-03-14T01:42:54;96129.88;;;10.92;100.00
18795;BME280;29610;49.022;12.114;2023-03-14T01:46:17;96139.19;;;10.91;100.00
18795;BME280;29610;49.022;12.114;2023-03-14T01:48:57;96153.59;;;10.95;100.00
18795;BME280;29610;49.022;12.114;2023-03-14T01:51:35;96141.69;;;10.99;100.00
18795;BME280;29610;49.022;12.114;2023-03-14T01:54:12;96146.78;;;11.04;100.00
18795;BME280;29610;49.022;12.114;2023-03-14T01:56:50;96145.41;;;11.14;100.00
18795;BME280;29610;49.022;12.114;2023-03-14T01:59:21;96146.13;;;11.11;100.00
18795;BME280;29610;49.022;12.114;2023-03-14T02:01:51;96139.22;;;11.13;100.00
18795;BME280;29610;49.022;12.114;2023-03-14T02:04:20;96128.41;;;11.17;100.00
18795;BME280;29610;49.022;12.114;2023-03-14T02:06:57;96122.16;;;11.16;100.00
18795;BME280;29610;49.022;12.114;2023-03-14T02:09:31;96111.94;;;11.10;100.00
18795;BME280;29610;49.022;12.114;2023-03-14T02:12:02;96098.78;;;11.12;100.00
18795;BME280;29610;49.022;12.114;2023-03-14T02:15:05;96087.25;;;11.18;100.00
18795;BME280;29610;49.022;12.114;2023-03-14T02:17:51;96060.38;;;11.13;100.00
18795;BME280;29610;49.022;12.114;2023-03-14T02:20:45;96056.44;;;11.11;100.00
18795;BME280;29610;49.022;12.114;2023-03-14T02:23:24;96044.28;;;11.05;100.00
18795;BME280;29610;49.022;12.114;2023-03-14T02:26:06;96047.81;;;11.05;100.00
18795;BME280;29610;49.022;12.114;2023-03-14T02:28:39;96031.00;;;11.00;100.00
18795;BME280;29610;49.022;12.114;2023-03-14T02:31:08;96037.25;;;11.00;100.00
18795;BME280;29610;49.022;12.114;2023-03-14T02:33:38;96037.53;;;10.95;100.00
18795;BME280;29610;49.022;12.114;2023-03-14T02:36:11;96045.88;;;10.83;100.00
18795;BME280;29610;49.022;12.114;2023-03-14T02:38:47;96054.72;;;10.80;100.00
18795;BME280;29610;49.022;12.114;2023-03-14T02:41:22;96066.03;;;10.82;100.00
18795;BME280;29610;49.022;12.114;2023-03-14T02:44:00;96015.56;;;10.81;100.00
18795;BME280;29610;49.022;12.114;2023-03-14T02:46:29;96025.09;;;10.72;100.00
18795;BME280;29610;49.022;12.114;2023-03-14T02:49:03;96015.38;;;10.71;100.00
18795;BME280;29610;49.022;12.114;2023-03-14T02:51:33;95995.94;;;10.69;100.00
18795;BME280;29610;49.022;12.114;2023-03-14T02:54:05;95984.00;;;10.73;100.00
18795;BME280;29610;49.022;12.114;2023-03-14T02:56:33;95997.63;;;10.77;100.00
18795;BME280;29610;49.022;12.114;2023-03-14T02:59:04;95977.09;;;10.79;100.00
18795;BME280;29610;49.022;12.114;2023-03-14T03:01:39;95985.84;;;10.69;100.00
18795;BME280;29610;49.022;12.114;2023-03-14T03:04:08;95999.41;;;10.66;100.00
18795;BME280;29610;49.022;12.114;2023-03-14T03:06:36;96026.84;;;10.61;100.00
18795;BME280;29610;49.022;12.114;2023-03-14T03:09:05;96055.09;;;10.56;100.00
18795;BME280;29610;49.022;12.114;2023-03-14T03:11:35;96071.97;;;10.46;100.00
18795;BME280;29610;49.022;12.114;2023-03-14T03:14:06;96063.91;;;10.50;100.00
18795;BME280;29610;49.022;12.114;2023-03-14T03:16:35;96075.75;;;10.42;100.00
18795;BME280;29610;49.022;12.114;2023-03-14T03:19:03;96075.53;;;10.50;100.00
18795;BME280;29610;49.022;12.114;2023-03-14T03:21:32;96079.03;;;10.51;100.00
18795;BME280;29610;49.022;12.114;2023-03-14T03:24:01;96077.50;;;10.53;100.00
18795;BME280;29610;49.022;12.114;2023-03-14T03:26:34;96087.09;;;10.47;100.00
18795;BME280;29610;49.022;12.114;2023-03-14T03:29:06;96097.41;;;10.57;100.00
18795;BME280;29610;49.022;12.114;2023-03-14T03:31:37;96097.09;;;10.62;100.00
18795;BME280;29610;49.022;12.114;2023-03-14T03:34:06;96100.25;;;10.64;100.00
18795;BME280;29610;49.022;12.114;2023-03-14T03:36:35;96089.72;;;10.63;100.00
18795;BME280;29610;49.022;12.114;2023-03-14T03:39:03;96078.53;;;10.64;100.00
18795;BME280;29610;49.022;12.114;2023-03-14T03:41:32;96077.31;;;10.62;100.00
18795;BME280;29610;49.022;12.114;2023-03-14T03:44:02;96077.38;;;10.65;100.00
18795;BME280;29610;49.022;12.114;2023-03-14T03:46:32;96069.59;;;10.64;100.00
18795;BME280;29610;49.022;12.114;2023-03-14T03:49:01;96069.09;;;10.58;100.00
18795;BME280;29610;49.022;12.114;2023-03-14T03:51:30;96066.44;;;10.62;100.00
18795;BME280;29610;49.022;12.114;2023-03-14T03:53:58;96058.94;;;10.55;100.00
18795;BME280;29610;49.022;12.114;2023-03-14T03:56:33;96047.66;;;10.53;100.00
18795;BME280;29610;49.022;12.114;2023-03-14T03:59:01;96048.81;;;10.52;100.00
18795;BME280;29610;49.022;12.114;2023-03-14T04:01:31;96037.88;;;10.49;100.00
18795;BME280;29610;49.022;12.114;2023-03-14T04:04:00;96042.38;;;10.41;100.00
18795;BME280;29610;49.022;12.114;2023-03-14T04:06:29;96042.66;;;10.36;100.00
18795;BME280;29610;49.022;12.114;2023-03-14T04:09:00;96035.41;;;10.40;100.00
18795;BME280;29610;49.022;12.114;2023-03-14T04:11:40;96046.63;;;10.39;100.00
18795;BME280;29610;49.022;12.114;2023-03-14T04:14:31;96042.19;;;10.30;100.00
18795;BME280;29610;49.022;12.114;2023-03-14T04:17:09;96030.91;;;10.28;100.00
18795;BME280;29610;49.022;12.114;2023-03-14T04:19:37;96027.03;;;10.29;100.00
18795;BME280;29610;49.022;12.114;2023-03-14T04:22:06;96015.69;;;10.24;100.00
18795;BME280;29610;49.022;12.114;2023-03-14T04:24:44;96024.97;;;10.23;100.00
18795;BME280;29610;49.022;12.114;2023-03-14T04:27:13;96011.63;;;10.14;100.00
18795;BME280;29610;49.022;12.114;2023-03-14T04:29:44;96014.28;;;10.11;100.00
18795;BME280;29610;49.022;12.114;2023-03-14T04:32:17;96008.13;;;10.14;100.00
18795;BME280;29610;49.022;12.114;2023-03-14T04:34:45;95996.91;;;10.15;100.00
18795;BME280;29610;49.022;12.114;2023-03-14T04:37:14;95985.03;;;10.04;100.00
18795;BME280;29610;49.022;12.114;2023-03-14T04:39:44;95988.94;;;10.07;100.00
18795;BME280;29610;49.022;12.114;2023-03-14T04:42:32;95986.88;;;10.00;100.00
18795;BME280;29610;49.022;12.114;2023-03-14T04:45:02;95994.19;;;9.96;100.00
18795;BME280;29610;49.022;12.114;2023-03-14T04:47:33;95999.53;;;9.93;100.00
18795;BME280;29610;49.022;12.114;2023-03-14T04:50:04;95999.59;;;9.96;100.00
18795;BME280;29610;49.022;12.114;2023-03-14T04:52:34;95987.13;;;9.92;100.00
18795;BME280;29610;49.022;12.114;2023-03-14T04:55:05;95987.56;;;9.94;100.00
18795;BME280;29610;49.022;12.114;2023-03-14T04:57:33;95980.97;;;9.95;100.00
18795;BME280;29610;49.022;12.114;2023-03-14T05:00:03;95990.66;;;9.96;100.00
18795;BME280;29610;49.022;12.114;2023-03-14T05:02:54;95994.91;;;9.93;100.00
18795;BME280;29610;49.022;12.114;2023-03-14T05:05:52;95989.81;;;9.92;100.00
18795;BME280;29610;49.022;12.114;2023-03-14T05:08:40;95983.75;;;9.98;100.00
18795;BME280;29610;49.022;12.114;2023-03-14T05:11:12;95989.03;;;9.91;100.00
18795;BME280;29610;49.022;12.114;2023-03-14T05:14:01;96004.31;;;9.80;100.00
18795;BME280;29610;49.022;12.114;2023-03-14T05:16:43;95998.53;;;9.82;100.00
18795;BME280;29610;49.022;12.114;2023-03-14T05:19:25;95985.03;;;9.85;100.00
18795;BME280;29610;49.022;12.114;2023-03-14T05:22:10;95985.25;;;9.77;100.00
18795;BME280;29610;49.022;12.114;2023-03-14T05:24:48;95991.47;;;9.77;100.00
18795;BME280;29610;49.022;12.114;2023-03-14T05:27:35;95998.81;;;9.77;100.00
18795;BME280;29610;49.022;12.114;2023-03-14T05:30:26;95991.03;;;9.75;100.00
18795;BME280;29610;49.022;12.114;2023-03-14T05:33:18;95991.53;;;9.81;100.00
18795;BME280;29610;49.022;12.114;2023-03-14T05:36:11;95990.91;;;9.87;100.00
18795;BME280;29610;49.022;12.114;2023-03-14T05:38:58;95993.38;;;9.77;100.00
18795;BME280;29610;49.022;12.114;2023-03-14T05:41:27;95976.63;;;9.71;100.00
18795;BME280;29610;49.022;12.114;2023-03-14T05:44:09;95979.63;;;9.66;100.00
18795;BME280;29610;49.022;12.114;2023-03-14T05:46:50;95967.19;;;9.65;100.00
18795;BME280;29610;49.022;12.114;2023-03-14T05:49:42;95968.84;;;9.70;100.00
18795;BME280;29610;49.022;12.114;2023-03-14T05:52:19;95967.25;;;9.69;100.00
18795;BME280;29610;49.022;12.114;2023-03-14T05:55:18;95969.59;;;9.70;100.00
18795;BME280;29610;49.022;12.114;2023-03-14T05:58:10;95970.75;;;9.69;100.00
18795;BME280;29610;49.022;12.114;2023-03-14T06:01:07;95971.56;;;9.70;100.00
18795;BME280;29610;49.022;12.114;2023-03-14T06:03:59;95975.41;;;9.69;100.00
18795;BME280;29610;49.022;12.114;2023-03-14T06:06:28;95973.56;;;9.73;100.00
18795;BME280;29610;49.022;12.114;2023-03-14T06:09:00;95979.91;;;9.80;100.00
18795;BME280;29610;49.022;12.114;2023-03-14T06:11:32;95976.25;;;9.92;100.00
18795;BME280;29610;49.022;12.114;2023-03-14T06:14:00;95962.34;;;9.93;100.00
18795;BME280;29610;49.022;12.114;2023-03-14T06:16:29;95956.69;;;10.02;100.00
18795;BME280;29610;49.022;12.114;2023-03-14T06:19:00;95966.41;;;10.03;100.00
18795;BME280;29610;49.022;12.114;2023-03-14T06:21:29;95966.13;;;10.08;100.00
18795;BME280;29610;49.022;12.114;2023-03-14T06:23:59;95964.63;;;10.10;100.00
18795;BME280;29610;49.022;12.114;2023-03-14T06:26:30;95962.06;;;10.17;100.00
18795;BME280;29610;49.022;12.114;2023-03-14T06:28:59;95961.41;;;10.24;100.00
18795;BME280;29610;49.022;12.114;2023-03-14T06:31:32;95963.81;;;10.29;100.00
18795;BME280;29610;49.022;12.114;2023-03-14T06:34:10;95966.84;;;10.24;100.00
18795;BME280;29610;49.022;12.114;2023-03-14T06:36:42;95960.19;;;10.21;100.00
18795;BME280;29610;49.022;12.114;2023-03-14T06:39:12;95958.13;;;10.38;100.00
18795;BME280;29610;49.022;12.114;2023-03-14T06:41:44;95958.50;;;10.36;100.00
18795;BME280;29610;49.022;12.114;2023-03-14T06:44:13;95963.50;;;10.34;100.00
18795;BME280;29610;49.022;12.114;2023-03-14T06:46:41;95963.56;;;10.38;100.00
18795;BME280;29610;49.022;12.114;2023-03-14T06:49:10;95951.31;;;10.47;100.00
18795;BME280;29610;49.022;12.114;2023-03-14T06:51:39;95946.47;;;10.56;100.00
18795;BME280;29610;49.022;12.114;2023-03-14T06:54:09;95950.00;;;10.60;100.00
18795;BME280;29610;49.022;12.114;2023-03-14T06:56:39;95941.72;;;10.53;100.00
18795;BME280;29610;49.022;12.114;2023-03-14T06:59:08;95953.75;;;10.52;100.00
18795;BME280;29610;49.022;12.114;2023-03-14T07:01:37;95948.16;;;10.64;100.00
18795;BME280;29610;49.022;12.114;2023-03-14T07:04:09;95952.56;;;10.72;100.00
18795;BME280;29610;49.022;12.114;2023-03-14T07:06:43;95947.22;;;10.79;100.00
18795;BME280;29610;49.022;12.114;2023-03-14T07:09:14;95941.16;;;10.89;100.00
18795;BME280;29610;49.022;12.114;2023-03-14T07:11:51;95929.94;;;10.91;100.00
18795;BME280;29610;49.022;12.114;2023-03-14T07:14:20;95932.78;;;11.01;100.00
18795;BME280;29610;49.022;12.114;2023-03-14T07:16:49;95928.88;;;10.99;100.00
18795;BME280;29610;49.022;12.114;2023-03-14T07:19:18;95942.56;;;11.06;100.00
18795;BME280;29610;49.022;12.114;2023-03-14T07:21:47;95931.88;;;11.16;100.00
18795;BME280;29610;49.022;12.114;2023-03-14T07:24:20;95936.44;;;11.12;100.00
18795;BME280;29610;49.022;12.114;2023-03-14T07:26:50;95939.97;;;11.13;100.00
18795;BME280;29610;49.022;12.114;2023-03-14T07:29:24;95939.66;;;11.18;100.00
18795;BME280;29610;49.022;12.114;2023-03-14T07:31:53;95950.47;;;11.40;100.00
18795;BME280;29610;49.022;12.114;2023-03-14T07:34:22;95950.16;;;11.45;100.00
18795;BME280;29610;49.022;12.114;2023-03-14T07:36:53;95951.69;;;11.46;100.00
18795;BME280;29610;49.022;12.114;2023-03-14T07:39:21;95959.66;;;11.62;100.00
18795;BME280;29610;49.022;12.114;2023-03-14T07:42:12;95957.88;;;11.69;100.00
18795;BME280;29610;49.022;12.114;2023-03-14T07:44:57;95954.41;;;11.72;100.00
18795;BME280;29610;49.022;12.114;2023-03-14T07:47:26;95965.66;;;11.71;100.00
18795;BME280;29610;49.022;12.114;2023-03-14T07:49:54;95969.09;;;11.68;100.00
18795;BME280;29610;49.022;12.114;2023-03-14T07:52:23;95984.28;;;11.43;100.00
18795;BME280;29610;49.022;12.114;2023-03-14T07:54:51;95984.03;;;11.51;100.00
18795;BME280;29610;49.022;12.114;2023-03-14T07:57:22;95981.72;;;11.53;100.00
18795;BME280;29610;49.022;12.114;2023-03-14T07:59:51;95991.22;;;11.63;100.00
18795;BME280;29610;49.022;12.114;2023-03-14T08:02:19;95994.91;;;11.51;100.00
18795;BME280;29610;49.022;12.114;2023-03-14T08:04:50;95997.34;;;11.60;100.00
18795;BME280;29610;49.022;12.114;2023-03-14T08:07:19;96000.06;;;11.60;100.00
18795;BME280;29610;49.022;12.114;2023-03-14T08:09:47;95994.53;;;11.53;100.00
18795;BME280;29610;49.022;12.114;2023-03-14T08:12:16;95991.72;;;11.72;100.00
18795;BME280;29610;49.022;12.114;2023-03-14T08:14:46;95987.13;;;11.79;100.00
18795;BME280;29610;49.022;12.114;2023-03-14T08:17:15;95984.53;;;11.87;100.00
18795;BME280;29610;49.022;12.114;2023-03-14T08:19:43;95978.44;;;11.97;100.00
18795;BME280;29610;49.022;12.114;2023-03-14T08:22:12;95980.09;;;12.08;100.00
18795;BME280;29610;49.022;12.114;2023-03-14T08:24:42;95980.06;;;12.38;100.00
18795;BME280;29610;49.022;12.114;2023-03-14T08:27:10;95968.84;;;12.46;100.00
18795;BME280;29610;49.022;12.114;2023-03-14T08:29:39;95966.03;;;12.76;100.00
18795;BME280;29610;49.022;12.114;2023-03-14T08:32:10;95973.59;;;12.96;100.00
18795;BME280;29610;49.022;12.114;2023-03-14T08:34:39;95961.66;;;13.15;100.00
18795;BME280;29610;49.022;12.114;2023-03-14T08:37:07;95962.91;;;13.24;100.00
18795;BME280;29610;49.022;12.114;2023-03-14T08:39:52;95959.50;;;13.38;100.00
18795;BME280;29610;49.022;12.114;2023-03-14T08:42:21;95957.16;;;13.37;100.00
18795;BME280;29610;49.022;12.114;2023-03-14T08:44:52;95954.19;;;13.66;100.00
18795;BME280;29610;49.022;12.114;2023-03-14T08:47:22;95951.56;;;13.87;100.00
18795;BME280;29610;49.022;12.114;2023-03-14T08:49:51;95954.69;;;13.86;100.00
18795;BME280;29610;49.022;12.114;2023-03-14T08:52:20;95942.59;;;13.83;100.00
18795;BME280;29610;49.022;12.114;2023-03-14T08:54:48;95946.22;;;14.12;100.00
18795;BME280;29610;49.022;12.114;2023-03-14T08:57:17;95936.84;;;14.23;100.00
18795;BME280;29610;49.022;12.114;2023-03-14T08:59:46;95937.72;;;14.41;100.00
18795;BME280;29610;49.022;12.114;2023-03-14T09:02:15;95936.97;;;14.69;100.00
18795;BME280;29610;49.022;12.114;2023-03-14T09:04:45;95938.94;;;14.68;100.00
18795;BME280;29610;49.022;12.114;2023-03-14T09:07:13;95934.63;;;14.60;100.00
18795;BME280;29610;49.022;12.114;2023-03-14T09:09:42;95935.78;;;14.42;100.00
18795;BME280;29610;49.022;12.114;2023-03-14T09:12:11;95936.94;;;14.58;100.00
18795;BME280;29610;49.022;12.114;2023-03-14T09:14:40;95938.94;;;14.72;100.00
18795;BME280;29610;49.022;12.114;2023-03-14T09:17:09;95936.59;;;14.81;100.00
18795;BME280;29610;49.022;12.114;2023-03-14T09:19:37;95928.38;;;14.99;100.00
18795;BME280;29610;49.022;12.114;2023-03-14T09:22:09;95937.75;;;15.05;100.00
18795;BME280;29610;49.022;12.114;2023-03-14T09:24:37;95929.53;;;15.26;100.00
18795;BME280;29610;49.022;12.114;2023-03-14T09:27:06;95936.97;;;15.11;100.00
18795;BME280;29610;49.022;12.114;2023-03-14T09:29:35;95943.22;;;15.08;100.00
18795;BME280;29610;49.022;12.114;2023-03-14T09:32:04;95943.22;;;15.36;100.00
18795;BME280;29610;49.022;12.114;2023-03-14T09:34:32;95941.97;;;15.76;100.00
18795;BME280;29610;49.022;12.114;2023-03-14T09:37:03;95936.47;;;15.79;100.00
18795;BME280;29610;49.022;12.114;2023-03-14T09:39:33;95940.47;;;15.54;100.00
18795;BME280;29610;49.022;12.114;2023-03-14T09:42:05;95940.88;;;15.45;100.00
18795;BME280;29610;49.022;12.114;2023-03-14T09:44:39;95941.66;;;15.46;100.00
18795;BME280;29610;49.022;12.114;2023-03-14T09:47:13;95931.38;;;15.81;100.00
18795;BME280;29610;49.022;12.114;2023-03-14T09:49:42;95944.31;;;15.74;100.00
18795;BME280;29610;49.022;12.114;2023-03-14T09:52:15;95949.84;;;15.32;100.00
18795;BME280;29610;49.022;12.114;2023-03-14T09:54:50;95934.94;;;15.64;100.00
18795;BME280;29610;49.022;12.114;2023-03-14T09:57:24;95929.75;;;15.91;100.00
18795;BME280;29610;49.022;12.114;2023-03-14T09:59:58;95927.13;;;15.56;100.00
18795;BME280;29610;49.022;12.114;2023-03-14T10:02:35;95931.06;;;15.58;100.00
18795;BME280;29610;49.022;12.114;2023-03-14T10:05:14;95919.28;;;15.72;100.00
18795;BME280;29610;49.022;12.114;2023-03-14T10:07:43;95922.06;;;15.65;100.00
18795;BME280;29610;49.022;12.114;2023-03-14T10:10:18;95908.56;;;16.09;100.00
18795;BME280;29610;49.022;12.114;2023-03-14T10:12:56;95900.66;;;16.22;100.00
18795;BME280;29610;49.022;12.114;2023-03-14T10:15:30;95904.53;;;16.28;100.00
18795;BME280;29610;49.022;12.114;2023-03-14T10:18:01;95901.88;;;16.10;100.00
18795;BME280;29610;49.022;12.114;2023-03-14T10:20:39;95895.81;;;15.67;100.00
18795;BME280;29610;49.022;12.114;2023-03-14T10:23:24;95899.41;;;15.54;100.00
18795;BME280;29610;49.022;12.114;2023-03-14T10:26:12;95884.06;;;15.70;100.00
18795;BME280;29610;49.022;12.114;2023-03-14T10:28:45;95896.56;;;15.75;100.00
18795;BME280;29610;49.022;12.114;2023-03-14T10:31:15;95895.81;;;15.67;100.00
18795;BME280;29610;49.022;12.114;2023-03-14T10:33:59;95882.03;;;15.95;100.00
18795;BME280;29610;49.022;12.114;2023-03-14T10:36:30;95879.09;;;16.31;100.00
18795;BME280;29610;49.022;12.114;2023-03-14T10:39:25;95878.25;;;16.88;100.00
18795;BME280;29610;49.022;12.114;2023-03-14T10:42:05;95875.00;;;17.04;100.00
18795;BME280;29610;49.022;12.114;2023-03-14T10:44:36;95875.44;;;16.99;100.00
18795;BME280;29610;49.022;12.114;2023-03-14T10:47:16;95869.16;;;17.02;100.00
18795;BME280;29610;49.022;12.114;2023-03-14T10:49:46;95865.88;;;17.14;100.00
18795;BME280;29610;49.022;12.114;2023-03-14T10:52:20;95877.13;;;16.86;100.00
18795;BME280;29610;49.022;12.114;2023-03-14T10:55:01;95869.38;;;16.74;100.00
18795;BME280;29610;49.022;12.114;2023-03-14T10:57:38;95875.63;;;16.78;100.00
18795;BME280;29610;49.022;12.114;2023-03-14T11:00:16;95876.97;;;16.56;100.00
18795;BME280;29610;49.022;12.114;2023-03-14T11:03:02;95890.34;;;16.47;100.00
18795;BME280;29610;49.022;12.114;2023-03-14T11:05:40;95874.53;;;16.68;100.00
18795;BME280;29610;49.022;12.114;2023-03-14T11:08:24;95885.31;;;16.35;100.00
18795;BME280;29610;49.022;12.114;2023-03-14T11:11:09;95880.34;;;16.12;100.00
18795;BME280;29610;49.022;12.114;2023-03-14T11:13:57;95881.34;;;15.70;100.00
18795;BME280;29610;49.022;12.114;2023-03-14T11:16:40;95894.69;;;15.58;100.00
18795;BME280;29610;49.022;12.114;2023-03-14T11:19:28;95889.22;;;15.37;100.00
18795;BME280;29610;49.022;12.114;2023-03-14T11:22:13;95895.53;;;15.41;100.00
18795;BME280;29610;49.022;12.114;2023-03-14T11:25:13;95890.00;;;15.62;100.00
18795;BME280;29610;49.022;12.114;2023-03-14T11:27:56;95886.91;;;15.35;100.00
18795;BME280;29610;49.022;12.114;2023-03-14T11:30:38;95900.22;;;15.19;100.00
18795;BME280;29610;49.022;12.114;2023-03-14T11:33:15;95887.34;;;14.95;100.00
18795;BME280;29610;49.022;12.114;2023-03-14T11:35:53;95885.00;;;14.94;100.00
18795;BME280;29610;49.022;12.114;2023-03-14T11:38:32;95875.19;;;15.24;100.00
18795;BME280;29610;49.022;12.114;2023-03-14T11:41:02;95879.03;;;15.62;100.00
18795;BME280;29610;49.022;12.114;2023-03-14T11:43:35;95867.94;;;15.97;100.00
18795;BME280;29610;49.022;12.114;2023-03-14T11:46:17;95876.47;;;16.06;100.00
18795;BME280;29610;49.022;12.114;2023-03-14T11:48:59;95870.91;;;16.20;100.00
18795;BME280;29610;49.022;12.114;2023-03-14T11:51:34;95862.94;;;16.43;100.00
18795;BME280;29610;49.022;12.114;2023-03-14T11:54:14;95856.25;;;16.44;100.00
18795;BME280;29610;49.022;12.114;2023-03-14T11:56:52;95851.28;;;16.32;100.00
18795;BME280;29610;49.022;12.114;2023-03-14T11:59:27;95847.31;;;16.40;100.00
18795;BME280;29610;49.022;12.114;2023-03-14T12:02:03;95853.31;;;16.18;100.00
18795;BME280;29610;49.022;12.114;2023-03-14T12:04:49;95844.47;;;16.54;100.00
18795;BME280;29610;49.022;12.114;2023-03-14T12:07:32;95837.56;;;17.24;100.00
18795;BME280;29610;49.022;12.114;2023-03-14T12:10:04;95835.84;;;17.74;100.00
18795;BME280;29610;49.022;12.114;2023-03-14T12:12:34;95827.53;;;18.34;100.00
18795;BME280;29610;49.022;12.114;2023-03-14T12:15:18;95823.59;;;18.85;100.00
18795;BME280;29610;49.022;12.114;2023-03-14T12:17:54;95824.91;;;18.54;100.00
18795;BME280;29610;49.022;12.114;2023-03-14T12:20:24;95813.91;;;18.54;100.00
18795;BME280;29610;49.022;12.114;2023-03-14T12:22:56;95810.19;;;18.41;100.00
18795;BME280;29610;49.022;12.114;2023-03-14T12:25:32;95806.25;;;17.85;100.00
18795;BME280;29610;49.022;12.114;2023-03-14T12:28:18;95815.06;;;17.02;100.00
18795;BME280;29610;49.022;12.114;2023-03-14T12:30:48;95811.28;;;16.38;100.00
18795;BME280;29610;49.022;12.114;2023-03-14T12:33:28;95802.38;;;16.24;100.00
18795;BME280;29610;49.022;12.114;2023-03-14T12:36:18;95802.59;;;15.92;100.00
18795;BME280;29610;49.022;12.114;2023-03-14T12:39:16;95805.13;;;15.55;100.00
18795;BME280;29610;49.022;12.114;2023-03-14T12:41:52;95802.41;;;15.55;100.00
18795;BME280;29610;49.022;12.114;2023-03-14T12:44:44;95805.22;;;15.27;100.00
18795;BME280;29610;49.022;12.114;2023-03-14T12:50:38;95817.31;;;15.33;100.00
18795;BME280;29610;49.022;12.114;2023-03-14T12:54:12;95812.25;;;15.38;100.00
18795;BME280;29610;49.022;12.114;2023-03-14T12:57:06;95813.28;;;15.69;100.00
18795;BME280;29610;49.022;12.114;2023-03-14T12:59:46;95805.31;;;15.95;100.00
18795;BME280;29610;49.022;12.114;2023-03-14T13:02:23;95798.44;;;16.25;100.00
18795;BME280;29610;49.022;12.114;2023-03-14T13:05:03;95790.16;;;16.35;100.00
18795;BME280;29610;49.022;12.114;2023-03-14T13:08:03;95786.75;;;16.21;100.00
18795;BME280;29610;49.022;12.114;2023-03-14T13:10:42;95789.63;;;16.03;100.00
18795;BME280;29610;49.022;12.114;2023-03-14T13:13:21;95805.19;;;15.44;100.00
18795;BME280;29610;49.022;12.114;2023-03-14T13:15:55;95797.09;;;15.06;100.00
18795;BME280;29610;49.022;12.114;2023-03-14T13:18:33;95799.09;;;14.70;100.00
18795;BME280;29610;49.022;12.114;2023-03-14T13:21:09;95800.69;;;14.64;100.00